createdAt,value
2023-03-02T00:02:57.610Z,102388.47
2023-03-02T00:08:03.550Z,102384.56
2023-03-02T00:13:09.202Z,102387.25
2023-03-02T00:18:13.219Z,102381.41
2023-03-02T00:23:17.665Z,102384.91
2023-03-02T00:28:23.088Z,102379.06
2023-03-02T00:33:27.645Z,102377.19
2023-03-02T00:38:31.702Z,102379.88
2023-03-02T00:43:37.120Z,102392.88
2023-03-02T00:48:41.268Z,102377.47
2023-03-02T00:53:46.367Z,102372.34
2023-03-02T00:58:51.790Z,102373.19
2023-03-02T01:03:56.394Z,102373.31
2023-03-02T01:09:00.601Z,102372.72
2023-03-02T01:14:06.257Z,102366.66
2023-03-02T01:19:10.530Z,102370.06
2023-03-02T01:24:15.232Z,102350.59
2023-03-02T01:29:20.857Z,102351.41
2023-03-02T01:34:26.603Z,102358.38
2023-03-02T01:39:31.080Z,102346.44
2023-03-02T01:44:42.856Z,102347.50
2023-03-02T01:49:53.770Z,102347.63
2023-03-02T01:55:03.246Z,102337.56
2023-03-02T02:00:13.782Z,102347.16
2023-03-02T02:05:24.592Z,102342.19
2023-03-02T02:10:30.226Z,102337.19
2023-03-02T02:15:36.680Z,102344.28
2023-03-02T02:20:46.111Z,102337.38
2023-03-02T02:26:12.319Z,102348.78
2023-03-02T02:31:22.889Z,102321.38
2023-03-02T02:36:33.539Z,102317.19
2023-03-02T02:41:43.684Z,102307.66
2023-03-02T02:46:48.060Z,102313.91
2023-03-02T02:51:52.487Z,102313.06
2023-03-02T02:57:02.895Z,102315.84
2023-03-02T03:02:08.348Z,102308.81
2023-03-02T03:07:21.998Z,102318.44
2023-03-02T03:12:30.524Z,102322.66
2023-03-02T03:17:34.753Z,102309.78
2023-03-02T03:22:40.189Z,102302.22
2023-03-02T03:27:48.536Z,102298.84
2023-03-02T03:32:53.337Z,102307.53
2023-03-02T03:37:57.478Z,102306.06
2023-03-02T03:43:03.711Z,102316.94
2023-03-02T03:48:08.382Z,102314.34
2023-03-02T03:53:12.725Z,102320.47
2023-03-02T03:58:18.709Z,102325.41
2023-03-02T04:03:24.062Z,102321.31
2023-03-02T04:08:28.195Z,102329.00
2023-03-02T04:13:34.580Z,102323.09
2023-03-02T04:18:39.020Z,102329.97
2023-03-02T04:23:43.349Z,102321.44
2023-03-02T04:28:50.905Z,102314.84
2023-03-02T04:33:56.344Z,102321.59
2023-03-02T04:39:00.697Z,102318.09
2023-03-02T04:44:06.417Z,102320.72
2023-03-02T04:49:10.569Z,102313.09
2023-03-02T04:54:19.000Z,102317.53
2023-03-02T04:59:27.518Z,102314.78
2023-03-02T05:04:32.108Z,102312.53
2023-03-02T05:09:36.328Z,102318.69
2023-03-02T05:14:41.732Z,102326.59
2023-03-02T05:19:46.111Z,102317.28
2023-03-02T05:24:50.214Z,102311.09
2023-03-02T05:29:55.683Z,102317.22
2023-03-02T05:35:00.745Z,102310.41
2023-03-02T05:40:06.594Z,102320.75
2023-03-02T05:45:21.947Z,102313.97
2023-03-02T05:50:26.065Z,102314.75
2023-03-02T05:55:30.292Z,102314.97
2023-03-02T06:00:35.986Z,102316.59
2023-03-02T06:05:40.803Z,102323.63
2023-03-02T06:10:47.344Z,102329.56
2023-03-02T06:15:58.668Z,102327.03
2023-03-02T06:21:03.801Z,102325.53
2023-03-02T06:26:13.172Z,102338.59
2023-03-02T06:31:18.776Z,102347.00
2023-03-02T06:36:23.150Z,102349.66
2023-03-02T06:41:27.686Z,102351.44
2023-03-02T06:46:33.497Z,102352.31
2023-03-02T06:51:38.630Z,102348.88
2023-03-02T06:56:42.660Z,102363.50
2023-03-02T07:01:50.555Z,102360.38
2023-03-02T07:06:54.871Z,102359.19
2023-03-02T07:11:58.994Z,102353.13
2023-03-02T07:17:05.985Z,102353.03
2023-03-02T07:22:10.087Z,102355.66
2023-03-02T07:27:14.335Z,102364.97
2023-03-02T07:32:19.835Z,102358.97
2023-03-02T07:37:23.984Z,102348.56
2023-03-02T07:42:28.034Z,102351.97
2023-03-02T07:47:36.143Z,102352.50
2023-03-02T07:52:40.288Z,102354.00
2023-03-02T07:57:44.475Z,102357.13
2023-03-02T08:02:50.214Z,102356.91
2023-03-02T08:07:54.416Z,102356.69
2023-03-02T08:12:58.493Z,102355.56
2023-03-02T08:18:03.898Z,102364.69
2023-03-02T08:23:08.442Z,102366.09
2023-03-02T08:28:12.534Z,102362.47
2023-03-02T08:33:18.467Z,102366.19
2023-03-02T08:38:22.573Z,102369.22
2023-03-02T08:43:27.633Z,102370.41
2023-03-02T08:48:33.593Z,102373.44
2023-03-02T08:53:40.780Z,102346.78
2023-03-02T08:58:55.015Z,102314.22
2023-03-02T09:04:01.288Z,102299.81
2023-03-02T09:09:06.231Z,102281.88
2023-03-02T09:14:11.186Z,102271.81
2023-03-02T09:19:16.658Z,102262.69
2023-03-02T09:24:20.891Z,102242.06
2023-03-02T09:29:25.435Z,102236.09
2023-03-02T09:34:30.992Z,102239.91
2023-03-02T09:39:35.168Z,102233.31
2023-03-02T09:45:22.157Z,102233.66
2023-03-02T09:50:35.782Z,102218.81
2023-03-02T09:55:39.983Z,102220.72
2023-03-02T10:00:45.530Z,102208.03
2023-03-02T10:05:58.324Z,102199.50
2023-03-02T10:11:13.112Z,102204.47
2023-03-02T10:16:32.533Z,102197.47
2023-03-02T10:21:44.101Z,102194.50
2023-03-02T10:26:59.008Z,102188.50
2023-03-02T10:32:18.411Z,102188.97
2023-03-02T10:37:26.682Z,102183.81
2023-03-02T10:42:35.401Z,102173.75
2023-03-02T10:47:40.888Z,102169.34
2023-03-02T10:53:00.233Z,102167.50
2023-03-02T10:58:08.979Z,102164.41
2023-03-02T11:03:26.143Z,102159.84
2023-03-02T11:08:33.003Z,102150.66
2023-03-02T11:13:42.797Z,102150.19
2023-03-02T11:18:54.075Z,102144.59
2023-03-02T11:24:11.349Z,102151.56
2023-03-02T11:29:27.448Z,102149.88
2023-03-02T11:34:43.431Z,102133.44
2023-03-02T11:40:16.806Z,102127.53
2023-03-02T11:45:27.350Z,102123.09
2023-03-02T11:50:38.076Z,102117.06
2023-03-02T11:55:48.747Z,102099.59
2023-03-02T12:00:55.361Z,102100.28
2023-03-02T12:06:06.756Z,102103.50
2023-03-02T12:11:35.472Z,102091.28
2023-03-02T12:16:41.907Z,102102.72
2023-03-02T12:21:58.345Z,102098.50
2023-03-02T12:27:06.205Z,102099.41
2023-03-02T12:32:24.538Z,102094.53
2023-03-02T12:37:33.042Z,102094.41
2023-03-02T12:42:51.249Z,102082.75
2023-03-02T12:48:04.403Z,102081.94
2023-03-02T12:53:19.833Z,102078.94
2023-03-02T12:58:29.043Z,102075.63
2023-03-02T13:03:33.430Z,102064.53
2023-03-02T13:08:37.887Z,102064.97
2023-03-02T13:13:46.111Z,102067.63
2023-03-02T13:18:53.901Z,102064.44
2023-03-02T13:24:03.430Z,102060.84
2023-03-02T13:29:28.997Z,102059.00
2023-03-02T13:34:48.263Z,102053.47
2023-03-02T13:40:04.985Z,102054.91
2023-03-02T13:45:33.783Z,102048.88
2023-03-02T13:50:37.951Z,102050.47
2023-03-02T13:55:42.130Z,102052.72
2023-03-02T14:00:48.864Z,102048.94
2023-03-02T14:05:53.523Z,102051.00
2023-03-02T14:11:08.285Z,102053.44
2023-03-02T14:16:16.284Z,102053.66
2023-03-02T14:21:23.875Z,102058.44
2023-03-02T14:26:35.368Z,102064.56
2023-03-02T14:31:40.720Z,102053.16
2023-03-02T14:36:48.203Z,102056.59
2023-03-02T14:41:54.459Z,102053.97
2023-03-02T14:47:02.905Z,102037.72
2023-03-02T14:52:15.023Z,102031.22
2023-03-02T14:57:21.860Z,102048.03
2023-03-02T15:02:30.013Z,102036.81
2023-03-02T15:07:34.122Z,102049.72
2023-03-02T15:12:38.175Z,102043.22
2023-03-02T15:17:46.867Z,102036.91
2023-03-02T15:22:52.582Z,102039.59
2023-03-02T15:27:58.131Z,102042.00
2023-03-02T15:33:04.510Z,102036.78
2023-03-02T15:38:19.578Z,102039.28
2023-03-02T15:43:24.325Z,102029.06
2023-03-02T15:48:30.790Z,102035.94
2023-03-02T15:53:38.090Z,102036.06
2023-03-02T15:58:46.661Z,102023.00
2023-03-02T16:03:52.118Z,102023.94
2023-03-02T16:08:56.367Z,102030.69
2023-03-02T16:14:00.373Z,102032.69
2023-03-02T16:19:05.795Z,102045.88
2023-03-02T16:24:10.538Z,102047.38
2023-03-02T16:29:15.286Z,102050.50
2023-03-02T16:34:20.845Z,102055.88
2023-03-02T16:39:24.965Z,102066.16
2023-03-02T16:44:29.639Z,102071.72
2023-03-02T16:49:35.111Z,102083.16
2023-03-02T16:54:39.179Z,102072.00
2023-03-02T16:59:43.348Z,102077.41
2023-03-02T17:04:48.741Z,102078.72
2023-03-02T17:09:52.767Z,102093.03
2023-03-02T17:14:56.979Z,102097.59
2023-03-02T17:20:02.574Z,102116.13
2023-03-02T17:25:07.801Z,102126.53
2023-03-02T17:30:13.768Z,102136.22
2023-03-02T17:35:19.565Z,102136.13
2023-03-02T17:40:24.368Z,102144.94
2023-03-02T17:45:30.876Z,102158.69
2023-03-02T17:50:37.415Z,102165.09
2023-03-02T17:55:41.574Z,102166.16
2023-03-02T18:00:46.099Z,102175.56
2023-03-02T18:05:51.713Z,102184.13
2023-03-02T18:10:56.048Z,102199.75
2023-03-02T18:16:00.283Z,102207.06
2023-03-02T18:21:06.494Z,102208.75
2023-03-02T18:26:12.046Z,102224.97
2023-03-02T18:31:18.954Z,102228.22
2023-03-02T18:36:24.542Z,102229.78
2023-03-02T18:41:28.597Z,102240.47
2023-03-02T18:46:33.603Z,102244.50
2023-03-02T18:51:45.523Z,102249.63
2023-03-02T18:56:49.641Z,102253.53
2023-03-02T19:01:53.892Z,102263.97
2023-03-02T19:07:00.841Z,102268.06
2023-03-02T19:12:05.778Z,102270.28
2023-03-02T19:17:09.921Z,102264.00
2023-03-02T19:22:16.666Z,102276.31
2023-03-02T19:27:21.080Z,102287.09
2023-03-02T19:32:26.354Z,102288.47
2023-03-02T19:37:32.656Z,102281.31
2023-03-02T19:42:39.444Z,102294.91
2023-03-02T19:47:47.832Z,102290.94
2023-03-02T19:52:54.999Z,102304.97
2023-03-02T19:58:02.134Z,102307.63
2023-03-02T20:03:08.581Z,102303.44
2023-03-02T20:08:17.978Z,102321.19
2023-03-02T20:13:22.291Z,102317.75
2023-03-02T20:18:26.977Z,102320.97
2023-03-02T20:23:32.568Z,102315.13
2023-03-02T20:28:37.043Z,102321.06
2023-03-02T20:33:46.405Z,102323.28
2023-03-02T20:38:56.267Z,102337.22
2023-03-02T20:44:00.477Z,102340.56
2023-03-02T20:49:06.243Z,102342.69
2023-03-02T20:54:11.909Z,102343.84
2023-03-02T20:59:16.527Z,102353.16
2023-03-02T21:04:20.970Z,102361.00
2023-03-02T21:09:26.724Z,102362.16
2023-03-02T21:14:30.768Z,102368.50
2023-03-02T21:19:35.019Z,102359.34
2023-03-02T21:24:40.390Z,102362.81
2023-03-02T21:29:44.486Z,102355.91
2023-03-02T21:34:48.611Z,102360.06
2023-03-02T21:39:54.166Z,102358.53
2023-03-02T21:44:58.264Z,102357.66
2023-03-02T21:50:03.181Z,102351.47
2023-03-02T21:55:13.309Z,102349.81
2023-03-02T22:00:23.058Z,102353.41
2023-03-02T22:05:28.083Z,102352.56
2023-03-02T22:10:38.851Z,102351.97
2023-03-02T22:15:43.060Z,102346.25
2023-03-02T22:20:50.854Z,102359.66
2023-03-02T22:26:02.889Z,102369.25
2023-03-02T22:31:18.477Z,102361.72
2023-03-02T22:36:25.136Z,102369.03
2023-03-02T22:41:30.578Z,102374.38
2023-03-02T22:46:34.714Z,102374.63
2023-03-02T22:51:38.786Z,102366.97
2023-03-02T22:56:48.656Z,102373.34
2023-03-02T23:01:53.952Z,102365.63
2023-03-02T23:07:00.707Z,102382.03
2023-03-02T23:12:15.932Z,102386.78
2023-03-02T23:17:22.562Z,102387.88
2023-03-02T23:22:29.829Z,102385.97
2023-03-02T23:27:35.394Z,102385.16
2023-03-02T23:32:39.499Z,102376.25
2023-03-02T23:37:43.600Z,102373.09
2023-03-02T23:42:49.736Z,102382.69
2023-03-02T23:47:53.794Z,102380.34
2023-03-02T23:52:57.772Z,102374.41
2023-03-02T23:58:03.141Z,102368.56
